Time;durP1;ratioP1;P1;durP2;ratioP2;P2;SDS_P1;SDS_P2;PMS_P1;PMS_P2;Temp;Humidity;BMP_temperature;BMP_pressure;BME280_temperature;BME280_humidity;BME280_pressure;Samples;Min_cycle;Max_cycle;Signal;HPM_P1;HPM_P2
2023/07/26 00:01:02;;;;;;;;;;;;;;;25.83;62.30;95694.41;622678;228;64824;-68
2023/07/26 00:03:30;;;;;;;;;;;;;;;25.83;61.40;95683.64;622726;228;62577;-68
2023/07/26 00:05:57;;;;;;;;;;;;;;;25.82;62.66;95684.75;622676;228;64580;-68
2023/07/26 00:08:25;;;;;;;;;;;;;;;25.83;61.83;95682.83;622663;228;64958;-68
2023/07/26 00:10:52;;;;;;;;;;;;;;;25.83;64.84;95689.03;622616;228;64887;-68
2023/07/26 00:13:20;;;;;;;;;;;;;;;25.82;62.74;95690.12;622626;227;67502;-65
2023/07/26 00:15:47;;;;;;;;;;;;;;;25.82;62.15;95687.44;622717;228;64982;-64
2023/07/26 00:18:15;;;;;;;;;;;;;;;25.82;62.07;95682.05;622689;228;62568;-64
2023/07/26 00:20:42;;;;;;;;;;;;;;;25.81;62.92;95680.50;622681;228;65852;-64
2023/07/26 00:23:09;;;;;;;;;;;;;;;25.82;63.83;95665.91;622634;228;67000;-65
2023/07/26 00:25:37;;;;;;;;;;;;;;;25.81;62.13;95667.04;622675;228;62669;-64
2023/07/26 00:28:05;;;;;;;;;;;;;;;25.82;62.54;95681.27;622717;228;67271;-65
2023/07/26 00:30:32;;;;;;;;;;;;;;;25.81;63.09;95663.54;622672;228;67145;-64
2023/07/26 00:33:00;;;;;;;;;;;;;;;25.80;63.42;95657.37;622667;228;62578;-65
2023/07/26 00:35:32;;;;;;;;;;;;;;;25.81;66.26;95664.34;622646;228;67019;-65
2023/07/26 00:37:59;;;;;;;;;;;;;;;25.79;64.64;95661.20;622655;228;67022;-66
2023/07/26 00:40:27;;;;;;;;;;;;;;;25.78;62.78;95662.33;622678;228;64659;-67
2023/07/26 00:42:54;;;;;;;;;;;;;;;25.80;64.30;95653.91;622734;228;66918;-67
2023/07/26 00:45:22;;;;;;;;;;;;;;;25.79;62.76;95655.81;622658;228;66860;-67
2023/07/26 00:47:49;;;;;;;;;;;;;;;25.79;63.11;95650.44;622647;228;64581;-67
2023/07/26 00:50:17;;;;;;;;;;;;;;;25.78;63.37;95662.33;622636;228;64804;-67
2023/07/26 00:52:45;;;;;;;;;;;;;;;25.80;66.68;95649.30;622684;228;64660;-64
2023/07/26 00:55:15;;;;;;;;;;;;;;;25.79;67.25;95655.81;622749;227;43519;-63
2023/07/26 00:57:44;;;;;;;;;;;;;;;25.76;63.11;95640.34;622675;228;67206;-63
2023/07/26 01:00:12;;;;;;;;;;;;;;;25.78;64.91;95638.11;622460;227;67320;-67
2023/07/26 01:02:40;;;;;;;;;;;;;;;25.78;63.22;95626.53;622664;228;64719;-67
2023/07/26 01:05:10;;;;;;;;;;;;;;;25.78;64.04;95637.30;622669;228;65782;-67
2023/07/26 01:07:39;;;;;;;;;;;;;;;25.78;65.63;95640.80;622704;228;64756;-67
2023/07/26 01:10:23;;;;;;;;;;;;;;;25.78;65.26;95648.06;622685;228;62598;-67
2023/07/26 01:12:52;;;;;;;;;;;;;;;25.77;65.87;95644.59;621811;227;67200;-69
2023/07/26 01:15:21;;;;;;;;;;;;;;;25.77;65.89;95641.91;621460;228;66881;-69
2023/07/26 01:17:48;;;;;;;;;;;;;;;25.76;63.09;95634.19;621537;228;64734;-69
2023/07/26 01:20:16;;;;;;;;;;;;;;;25.77;64.74;95635.74;621549;228;66882;-69
2023/07/26 01:22:43;;;;;;;;;;;;;;;25.76;63.94;95639.56;621611;228;64938;-69
2023/07/26 01:25:11;;;;;;;;;;;;;;;25.76;64.96;95640.34;621518;228;64856;-70
2023/07/26 01:27:38;;;;;;;;;;;;;;;25.76;65.70;95647.64;621535;228;65077;-67
2023/07/26 01:30:06;;;;;;;;;;;;;;;25.75;64.20;95637.97;621574;228;64925;-67
2023/07/26 01:32:34;;;;;;;;;;;;;;;25.76;66.05;95632.27;621553;228;64723;-67
2023/07/26 01:35:02;;;;;;;;;;;;;;;25.76;67.13;95628.80;621625;228;67308;-67
2023/07/26 01:37:29;;;;;;;;;;;;;;;25.74;66.65;95620.27;621545;228;67122;-67
2023/07/26 01:40:00;;;;;;;;;;;;;;;25.74;66.28;95631.03;621568;228;64692;-63
2023/07/26 01:42:27;;;;;;;;;;;;;;;25.73;64.24;95619.49;621551;228;64962;-63
2023/07/26 01:44:55;;;;;;;;;;;;;;;25.74;64.42;95618.36;621562;228;64988;-64
2023/07/26 01:47:22;;;;;;;;;;;;;;;25.75;67.78;95613.76;621550;228;64702;-64
2023/07/26 01:49:50;;;;;;;;;;;;;;;25.74;67.17;95615.67;621563;228;67179;-64
2023/07/26 01:52:17;;;;;;;;;;;;;;;25.73;64.78;95608.73;621564;228;67091;-64
2023/07/26 01:54:45;;;;;;;;;;;;;;;25.74;64.46;95617.58;621553;228;62676;-63
2023/07/26 01:57:12;;;;;;;;;;;;;;;25.74;61.29;95621.05;621545;228;67170;-63
2023/07/26 01:59:40;;;;;;;;;;;;;;;25.75;61.18;95616.45;621557;228;66790;-64
2023/07/26 02:02:07;;;;;;;;;;;;;;;25.77;62.02;95608.83;621615;228;64547;-64
2023/07/26 02:04:35;;;;;;;;;;;;;;;25.77;63.11;95611.52;621573;228;65065;-64
2023/07/26 02:07:02;;;;;;;;;;;;;;;25.77;61.83;95608.83;621564;228;67296;-63
2023/07/26 02:09:30;;;;;;;;;;;;;;;25.77;62.59;95601.54;621527;228;64542;-64
2023/07/26 02:11:57;;;;;;;;;;;;;;;25.78;62.65;95595.05;621499;227;67395;-64
2023/07/26 02:14:25;;;;;;;;;;;;;;;25.77;61.03;95604.23;621606;228;67387;-67
2023/07/26 02:16:52;;;;;;;;;;;;;;;25.78;62.18;95605.01;621571;228;62593;-67
2023/07/26 02:19:20;;;;;;;;;;;;;;;25.77;61.19;95603.45;621546;228;65071;-64
2023/07/26 02:21:47;;;;;;;;;;;;;;;25.78;61.02;95594.25;621569;228;64796;-64
2023/07/26 02:24:15;;;;;;;;;;;;;;;25.79;59.80;95588.54;621547;228;65058;-63
2023/07/26 02:26:42;;;;;;;;;;;;;;;25.79;58.64;95585.85;621592;228;65656;-63
2023/07/26 02:29:11;;;;;;;;;;;;;;;25.80;62.67;95582.03;621561;228;64500;-63
2023/07/26 02:31:38;;;;;;;;;;;;;;;25.79;60.62;95590.45;621587;228;64704;-63
2023/07/26 02:34:06;;;;;;;;;;;;;;;25.78;60.56;95583.48;621536;228;66685;-63
2023/07/26 02:36:33;;;;;;;;;;;;;;;25.77;60.95;95588.09;621543;228;66976;-63
2023/07/26 02:39:00;;;;;;;;;;;;;;;25.77;59.60;95582.70;621572;228;64571;-64
2023/07/26 02:41:28;;;;;;;;;;;;;;;25.79;60.42;95595.83;621560;228;65096;-63
2023/07/26 02:43:55;;;;;;;;;;;;;;;25.80;58.32;95581.25;621564;228;67077;-63
2023/07/26 02:46:23;;;;;;;;;;;;;;;25.81;59.38;95586.31;621549;228;62781;-63
2023/07/26 02:48:50;;;;;;;;;;;;;;;25.80;60.56;95587.41;621550;228;67336;-63
2023/07/26 02:51:30;;;;;;;;;;;;;;;25.79;62.96;95577.78;621561;228;67676;-63
2023/07/26 02:53:57;;;;;;;;;;;;;;;25.78;60.06;95580.80;621566;228;64770;-65
2023/07/26 02:56:25;;;;;;;;;;;;;;;25.79;60.89;95577.00;621586;228;64969;-69
2023/07/26 02:58:52;;;;;;;;;;;;;;;25.77;60.05;95577.32;621552;228;64599;-69
2023/07/26 03:01:20;;;;;;;;;;;;;;;25.78;61.51;95589.67;621546;228;63495;-69
2023/07/26 03:03:47;;;;;;;;;;;;;;;25.78;60.97;95591.55;621553;228;67372;-68
2023/07/26 03:06:15;;;;;;;;;;;;;;;25.78;61.28;95583.48;621599;228;67087;-69
2023/07/26 03:08:42;;;;;;;;;;;;;;;25.77;61.87;95590.78;621553;228;64711;-69
2023/07/26 03:11:10;;;;;;;;;;;;;;;25.77;63.25;95582.70;621583;228;64633;-69
2023/07/26 03:13:37;;;;;;;;;;;;;;;25.76;60.68;95597.29;622701;228;66845;-69
2023/07/26 03:16:05;;;;;;;;;;;;;;;25.76;58.54;95591.12;622639;228;62337;-69
2023/07/26 03:18:32;;;;;;;;;;;;;;;25.77;59.94;95596.16;622762;228;64996;-69
2023/07/26 03:21:00;;;;;;;;;;;;;;;25.79;58.54;95595.83;622725;228;64008;-68
2023/07/26 03:23:29;;;;;;;;;;;;;;;25.80;58.25;95592.79;622690;228;64617;-65
2023/07/26 03:25:56;;;;;;;;;;;;;;;25.80;59.64;95594.70;622700;228;64781;-65
2023/07/26 03:28:24;;;;;;;;;;;;;;;25.80;57.39;95597.39;622677;228;67079;-65
2023/07/26 03:30:51;;;;;;;;;;;;;;;25.79;56.02;95596.62;622718;228;62594;-65
2023/07/26 03:33:19;;;;;;;;;;;;;;;25.80;57.16;95600.86;622701;228;66687;-65
2023/07/26 03:35:46;;;;;;;;;;;;;;;25.80;55.35;95592.79;622695;228;66832;-65
2023/07/26 03:38:14;;;;;;;;;;;;;;;25.82;59.76;95589.78;622688;228;62329;-65
2023/07/26 03:40:42;;;;;;;;;;;;;;;25.82;56.38;95585.17;622698;228;64661;-65
2023/07/26 03:43:09;;;;;;;;;;;;;;;25.81;54.95;95582.81;622696;228;67066;-65
2023/07/26 03:45:37;;;;;;;;;;;;;;;25.81;54.40;95575.55;622683;228;64701;-65
2023/07/26 03:48:05;;;;;;;;;;;;;;;25.83;55.11;95575.19;622674;228;66848;-65
2023/07/26 03:50:33;;;;;;;;;;;;;;;25.83;59.41;95570.62;622657;228;64995;-65
2023/07/26 03:53:00;;;;;;;;;;;;;;;25.81;60.23;95562.09;622656;228;64758;-65
2023/07/26 03:55:27;;;;;;;;;;;;;;;25.80;55.66;95570.48;622702;228;65295;-65
2023/07/26 03:57:56;;;;;;;;;;;;;;;25.81;55.59;95572.05;622658;228;67022;-65
2023/07/26 04:00:24;;;;;;;;;;;;;;;25.82;54.55;95558.27;622660;228;62643;-65
2023/07/26 04:02:53;;;;;;;;;;;;;;;25.82;57.73;95558.27;622659;228;67733;-69
2023/07/26 04:05:20;;;;;;;;;;;;;;;25.81;55.36;95554.02;622705;228;67019;-69
2023/07/26 04:07:49;;;;;;;;;;;;;;;25.82;57.87;95550.19;622718;228;41925;-69
2023/07/26 04:10:17;;;;;;;;;;;;;;;25.81;55.54;95562.09;622714;228;67225;-69
2023/07/26 04:12:44;;;;;;;;;;;;;;;25.82;55.20;95592.47;621887;227;67105;-69
2023/07/26 04:15:12;;;;;;;;;;;;;;;25.82;54.95;95605.92;621564;228;62756;-69
2023/07/26 04:17:39;;;;;;;;;;;;;;;25.83;54.89;95619.05;621556;228;67199;-68
2023/07/26 04:20:07;;;;;;;;;;;;;;;25.81;58.09;95621.29;621561;228;64917;-69
2023/07/26 04:22:35;;;;;;;;;;;;;;;25.80;56.81;95624.30;621553;228;64744;-69
2023/07/26 04:25:02;;;;;;;;;;;;;;;25.80;58.45;95635.84;621528;228;67197;-69
2023/07/26 04:27:29;;;;;;;;;;;;;;;25.79;58.32;95639.67;621563;228;67065;-69
2023/07/26 04:29:57;;;;;;;;;;;;;;;25.79;55.99;95652.34;621572;228;62752;-69
2023/07/26 04:32:24;;;;;;;;;;;;;;;25.80;56.30;95662.76;621579;228;67384;-69
2023/07/26 04:34:52;;;;;;;;;;;;;;;25.81;55.45;95658.16;621628;228;64777;-69
2023/07/26 04:37:19;;;;;;;;;;;;;;;25.80;54.87;95673.52;621550;228;64870;-69
2023/07/26 04:39:47;;;;;;;;;;;;;;;25.81;55.27;95691.26;621557;228;67211;-69
2023/07/26 04:42:15;;;;;;;;;;;;;;;25.81;55.07;95690.45;621475;228;68182;-69
2023/07/26 04:44:42;;;;;;;;;;;;;;;25.80;54.81;95695.05;621574;228;62485;-68
2023/07/26 04:47:12;;;;;;;;;;;;;;;25.81;54.90;95715.48;621621;228;67299;-68
2023/07/26 04:49:39;;;;;;;;;;;;;;;25.80;54.92;95711.20;621539;228;67720;-69
2023/07/26 04:52:07;;;;;;;;;;;;;;;25.81;54.76;95702.02;621560;228;64690;-69
2023/07/26 04:54:34;;;;;;;;;;;;;;;25.81;55.14;95699.33;621559;228;67210;-68
2023/07/26 04:57:02;;;;;;;;;;;;;;;25.81;55.00;95690.45;621552;228;64914;-69
2023/07/26 04:59:29;;;;;;;;;;;;;;;25.81;55.08;95695.83;621648;228;62587;-65
2023/07/26 05:01:58;;;;;;;;;;;;;;;25.81;54.87;95696.64;621585;228;66792;-65
2023/07/26 05:04:25;;;;;;;;;;;;;;;25.82;54.80;95703.58;621494;228;66911;-65
2023/07/26 05:06:53;;;;;;;;;;;;;;;25.83;54.71;95709.75;621533;228;62589;-65
2023/07/26 05:09:20;;;;;;;;;;;;;;;25.82;54.85;95714.34;621577;228;64768;-65
2023/07/26 05:11:48;;;;;;;;;;;;;;;25.83;55.44;95720.51;621824;227;66959;-68
2023/07/26 05:14:17;;;;;;;;;;;;;;;25.81;55.44;95714.67;622703;228;64697;-68
2023/07/26 05:16:44;;;;;;;;;;;;;;;25.82;55.06;95719.73;622667;228;64954;-68
2023/07/26 05:19:12;;;;;;;;;;;;;;;25.82;55.58;95722.42;622605;228;64908;-69
2023/07/26 05:21:40;;;;;;;;;;;;;;;25.82;54.70;95724.33;622666;228;64711;-68
2023/07/26 05:24:09;;;;;;;;;;;;;;;25.81;54.99;95718.17;622669;228;67298;-69
2023/07/26 05:26:36;;;;;;;;;;;;;;;25.81;54.47;95718.17;622714;228;67140;-68
2023/07/26 05:29:03;;;;;;;;;;;;;;;25.82;54.80;95724.33;622651;228;64837;-68
2023/07/26 05:31:31;;;;;;;;;;;;;;;25.81;55.15;95720.05;622536;228;67284;-69
2023/07/26 05:33:58;;;;;;;;;;;;;;;25.80;54.59;95711.20;622668;228;65289;-68
2023/07/26 05:36:26;;;;;;;;;;;;;;;25.81;54.65;95711.98;622633;228;64531;-69
2023/07/26 05:38:53;;;;;;;;;;;;;;;25.81;54.57;95702.02;622705;228;65010;-69
2023/07/26 05:41:21;;;;;;;;;;;;;;;25.82;54.62;95711.66;622269;228;66794;-69
2023/07/26 05:43:48;;;;;;;;;;;;;;;25.82;54.24;95706.27;622342;228;62704;-69
2023/07/26 05:46:16;;;;;;;;;;;;;;;25.82;53.75;95703.58;621430;228;64996;-69
2023/07/26 05:48:44;;;;;;;;;;;;;;;25.83;53.72;95702.48;622481;228;66809;-69
2023/07/26 05:51:11;;;;;;;;;;;;;;;25.83;53.79;95698.98;622590;228;62511;-68
2023/07/26 05:53:38;;;;;;;;;;;;;;;25.83;53.98;95698.98;622662;228;67428;-68
2023/07/26 05:56:07;;;;;;;;;;;;;;;25.83;54.31;95699.79;622615;228;65376;-69
2023/07/26 05:58:36;;;;;;;;;;;;;;;25.83;53.99;95694.41;622606;228;64776;-69
2023/07/26 06:01:04;;;;;;;;;;;;;;;25.84;53.99;95696.00;621966;228;67276;-71
2023/07/26 06:03:33;;;;;;;;;;;;;;;25.87;54.06;95695.33;622653;228;64879;-72
2023/07/26 06:06:00;;;;;;;;;;;;;;;25.89;53.81;95701.17;622657;227;62597;-72
2023/07/26 06:08:29;;;;;;;;;;;;;;;25.92;54.07;95702.41;624197;227;67914;-72
2023/07/26 06:10:56;;;;;;;;;;;;;;;25.94;54.13;95699.36;624339;227;65115;-71
2023/07/26 06:13:24;;;;;;;;;;;;;;;25.95;53.99;95692.88;627795;226;64719;-71
2023/07/26 06:15:51;;;;;;;;;;;;;;;25.97;54.04;95699.47;627961;226;67645;-71
2023/07/26 06:18:19;;;;;;;;;;;;;;;25.98;53.98;95692.98;628097;226;67012;-72
2023/07/26 06:20:47;;;;;;;;;;;;;;;25.99;53.81;95702.63;627967;226;62589;-64
2023/07/26 06:23:14;;;;;;;;;;;;;;;26.02;54.07;95698.48;627982;226;67405;-64
2023/07/26 06:25:43;;;;;;;;;;;;;;;26.03;54.54;95686.61;627536;225;64941;-66
2023/07/26 06:28:10;;;;;;;;;;;;;;;26.02;55.26;95701.17;620831;228;64740;-64
2023/07/26 06:30:38;;;;;;;;;;;;;;;26.02;55.74;95698.48;620874;228;67248;-65
2023/07/26 06:33:05;;;;;;;;;;;;;;;26.01;55.91;95688.84;620843;228;67078;-65
2023/07/26 06:35:32;;;;;;;;;;;;;;;26.03;56.20;95697.38;620697;228;63486;-66
2023/07/26 06:38:00;;;;;;;;;;;;;;;26.04;56.46;95686.26;620676;228;67311;-66
2023/07/26 06:40:27;;;;;;;;;;;;;;;26.04;56.85;95677.40;620851;228;66937;-65
2023/07/26 06:42:55;;;;;;;;;;;;;;;26.04;56.84;95670.10;620860;228;62631;-66
2023/07/26 06:45:22;;;;;;;;;;;;;;;26.04;57.17;95667.41;623149;225;67093;-66
2023/07/26 06:47:50;;;;;;;;;;;;;;;26.06;57.14;95673.25;623827;227;67027;-65
2023/07/26 06:50:17;;;;;;;;;;;;;;;26.07;57.22;95674.03;623775;227;63503;-66
2023/07/26 06:52:45;;;;;;;;;;;;;;;26.08;57.43;95671.02;623774;227;67195;-66
2023/07/26 06:55:12;;;;;;;;;;;;;;;26.09;57.36;95671.80;623800;227;67027;-65
2023/07/26 06:57:39;;;;;;;;;;;;;;;26.10;57.53;95682.21;623796;227;64713;-66
2023/07/26 07:00:12;;;;;;;;;;;;;;;26.10;57.77;95674.14;623777;227;64959;-66
2023/07/26 07:02:36;;;;;;;;;;;;;;;26.11;57.88;95666.87;623641;227;66957;-66
2023/07/26 07:05:04;;;;;;;;;;;;;;;26.12;57.87;95669.20;623730;227;62664;-66
2023/07/26 07:07:32;;;;;;;;;;;;;;;26.13;57.77;95664.60;623751;227;67240;-65
2023/07/26 07:09:59;;;;;;;;;;;;;;;26.13;57.87;95662.69;623776;227;67335;-65
2023/07/26 07:12:29;;;;;;;;;;;;;;;26.16;58.13;95669.31;622460;227;64727;-65
2023/07/26 07:14:56;;;;;;;;;;;;;;;26.16;58.22;95669.31;621545;228;64947;-65
2023/07/26 07:17:23;;;;;;;;;;;;;;;26.18;58.30;95677.06;621531;228;67120;-65
2023/07/26 07:19:51;;;;;;;;;;;;;;;26.20;58.41;95680.99;621479;228;62675;-65
2023/07/26 07:22:18;;;;;;;;;;;;;;;26.20;58.64;95683.69;621624;228;64899;-66
2023/07/26 07:24:45;;;;;;;;;;;;;;;26.21;58.72;95687.94;621567;228;66755;-67
2023/07/26 07:33:57;;;;;;;;;;;;;;;26.26;58.74;95687.72;621398;228;38615;-63
2023/07/26 07:36:24;;;;;;;;;;;;;;;26.28;58.93;95690.86;621503;228;64917;-65
2023/07/26 07:38:51;;;;;;;;;;;;;;;26.24;59.02;95695.34;621573;228;67258;-66
2023/07/26 07:41:19;;;;;;;;;;;;;;;26.22;59.04;95697.61;621517;228;67659;-64
2023/07/26 07:43:46;;;;;;;;;;;;;;;26.23;58.96;95684.92;621639;228;62578;-65
2023/07/26 07:46:14;;;;;;;;;;;;;;;26.22;58.96;95688.72;621558;228;64660;-71
2023/07/26 07:48:42;;;;;;;;;;;;;;;26.22;58.96;95694.91;621567;228;64712;-72
2023/07/26 07:51:09;;;;;;;;;;;;;;;26.21;58.91;95689.85;621507;228;62706;-73
2023/07/26 07:53:37;;;;;;;;;;;;;;;26.22;58.93;95689.53;621553;228;67181;-73
2023/07/26 07:56:04;;;;;;;;;;;;;;;26.23;58.73;95687.61;621568;228;64955;-72
2023/07/26 07:58:32;;;;;;;;;;;;;;;26.22;58.99;95692.22;621608;228;63490;-73
2023/07/26 08:00:59;;;;;;;;;;;;;;;26.18;59.16;95691.31;621513;228;64927;-72
2023/07/26 08:03:29;;;;;;;;;;;;;;;26.21;58.88;95695.23;621561;228;66923;-71
2023/07/26 08:05:56;;;;;;;;;;;;;;;26.22;58.86;95689.53;621601;228;63379;-72
2023/07/26 08:08:23;;;;;;;;;;;;;;;26.22;59.12;95691.41;621552;228;67197;-72
2023/07/26 08:10:51;;;;;;;;;;;;;;;26.22;58.94;95684.14;621607;228;66987;-72
2023/07/26 08:13:18;;;;;;;;;;;;;;;26.25;59.00;95693.45;623576;227;64727;-71
2023/07/26 08:15:46;;;;;;;;;;;;;;;26.25;59.34;95686.16;623730;227;67258;-72
2023/07/26 08:18:13;;;;;;;;;;;;;;;26.24;59.12;95689.95;623801;227;64745;-72
2023/07/26 08:20:41;;;;;;;;;;;;;;;26.27;59.17;95683.92;623800;227;63562;-68
2023/07/26 08:23:08;;;;;;;;;;;;;;;26.28;59.09;95679.31;623791;227;67340;-69
2023/07/26 08:25:36;;;;;;;;;;;;;;;26.30;59.05;95675.16;623706;227;68468;-69
2023/07/26 08:28:03;;;;;;;;;;;;;;;26.30;59.02;95667.08;623776;227;64850;-66
2023/07/26 08:30:31;;;;;;;;;;;;;;;26.31;58.89;95675.94;623741;227;67247;-68
2023/07/26 08:32:59;;;;;;;;;;;;;;;26.27;58.76;95665.07;623760;227;67151;-68
2023/07/26 08:35:26;;;;;;;;;;;;;;;26.32;58.55;95667.51;623801;227;64709;-65
2023/07/26 08:37:54;;;;;;;;;;;;;;;26.32;58.30;95662.13;623672;227;67196;-65
2023/07/26 08:40:25;;;;;;;;;;;;;;;26.32;58.06;95659.43;623768;227;67031;-65
2023/07/26 08:42:54;;;;;;;;;;;;;;;26.34;57.89;95667.97;623784;227;64702;-65
2023/07/26 08:45:22;;;;;;;;;;;;;;;26.34;57.66;95665.27;623645;227;64733;-64
2023/07/26 08:47:50;;;;;;;;;;;;;;;26.35;58.06;95661.47;623799;227;65516;-65
2023/07/26 08:50:17;;;;;;;;;;;;;;;26.36;57.61;95664.95;623758;227;62595;-65
2023/07/26 08:52:45;;;;;;;;;;;;;;;26.36;57.59;95659.56;623661;227;65289;-65
2023/07/26 08:55:13;;;;;;;;;;;;;;;26.37;57.81;95660.34;623752;227;66906;-65
2023/07/26 08:57:40;;;;;;;;;;;;;;;26.37;57.74;95660.34;623676;227;62747;-66
2023/07/26 09:00:11;;;;;;;;;;;;;;;26.37;57.73;95661.12;623663;227;44613;-65
2023/07/26 09:02:40;;;;;;;;;;;;;;;26.39;58.36;95671.56;623771;227;64753;-68
2023/07/26 09:05:09;;;;;;;;;;;;;;;26.39;58.26;95669.66;623709;227;64550;-65
2023/07/26 09:07:37;;;;;;;;;;;;;;;26.40;58.26;95662.35;623702;227;67205;-66
2023/07/26 09:10:04;;;;;;;;;;;;;;;26.40;58.51;95651.58;623793;227;67040;-67
2023/07/26 09:12:32;;;;;;;;;;;;;;;26.40;58.34;95659.66;622347;227;64606;-66
2023/07/26 09:15:01;;;;;;;;;;;;;;;26.41;58.41;95667.41;621520;228;67382;-67
2023/07/26 09:17:38;;;;;;;;;;;;;;;26.41;58.35;95653.14;621463;228;64860;-66
2023/07/26 09:20:20;;;;;;;;;;;;;;;26.42;58.29;95660.89;621477;228;64827;-65
2023/07/26 09:22:50;;;;;;;;;;;;;;;26.43;58.36;95657.06;621291;228;66669;-65
2023/07/26 09:25:22;;;;;;;;;;;;;;;26.43;58.23;95656.28;621402;228;66934;-65
2023/07/26 09:27:52;;;;;;;;;;;;;;;26.43;58.14;95662.45;621117;228;64832;-65
2023/07/26 09:30:21;;;;;;;;;;;;;;;26.44;58.14;95649.79;621560;228;67170;-66
2023/07/26 09:32:49;;;;;;;;;;;;;;;26.45;58.12;95654.05;621611;228;64705;-67
2023/07/26 09:35:16;;;;;;;;;;;;;;;26.45;58.28;95648.66;621484;228;62635;-66
2023/07/26 09:37:44;;;;;;;;;;;;;;;26.45;58.38;95651.35;621574;228;64969;-66
2023/07/26 09:40:12;;;;;;;;;;;;;;;26.45;58.34;95646.74;621575;228;65304;-66
2023/07/26 09:42:44;;;;;;;;;;;;;;;26.45;58.42;95643.27;621866;227;64837;-66
2023/07/26 09:45:21;;;;;;;;;;;;;;;26.45;58.23;95644.05;624193;227;64938;-66
2023/07/26 09:47:51;;;;;;;;;;;;;;;26.46;58.21;95647.52;624280;227;67009;-65
2023/07/26 09:50:25;;;;;;;;;;;;;;;26.43;58.48;95634.73;624365;227;62797;-65
2023/07/26 09:52:55;;;;;;;;;;;;;;;26.45;58.42;95627.89;624368;227;64971;-63
2023/07/26 09:55:24;;;;;;;;;;;;;;;26.46;58.58;95639.44;624186;227;67104;-63
2023/07/26 09:57:53;;;;;;;;;;;;;;;26.47;58.17;95632.95;624374;227;64925;-63
2023/07/26 10:00:23;;;;;;;;;;;;;;;26.50;57.93;95629.57;624276;227;64857;-63
2023/07/26 10:03:01;;;;;;;;;;;;;;;26.50;57.83;95626.87;624321;227;67099;-63
2023/07/26 10:05:30;;;;;;;;;;;;;;;26.52;57.86;95627.36;624310;227;64612;-64
2023/07/26 10:07:58;;;;;;;;;;;;;;;26.53;57.72;95618.14;624201;227;67429;-69
2023/07/26 10:10:27;;;;;;;;;;;;;;;26.53;57.51;95618.14;624335;227;67047;-69
2023/07/26 10:12:57;;;;;;;;;;;;;;;26.53;57.29;95618.14;624256;226;62792;-69
2023/07/26 10:15:26;;;;;;;;;;;;;;;26.54;57.17;95607.00;624320;227;66830;-68
2023/07/26 10:17:54;;;;;;;;;;;;;;;26.55;57.09;95618.59;624280;227;67141;-68
2023/07/26 10:20:22;;;;;;;;;;;;;;;26.55;56.83;95619.37;624362;227;64614;-68
2023/07/26 10:22:51;;;;;;;;;;;;;;;26.56;56.60;95614.77;624396;227;67216;-68
2023/07/26 10:25:18;;;;;;;;;;;;;;;26.56;56.26;95606.68;624328;227;64967;-69
2023/07/26 10:27:46;;;;;;;;;;;;;;;26.58;55.99;95619.82;624344;227;63495;-68
2023/07/26 10:30:14;;;;;;;;;;;;;;;26.57;55.76;95619.02;624250;227;64894;-70
2023/07/26 10:32:51;;;;;;;;;;;;;;;26.57;55.74;95624.41;624344;227;64818;-69
2023/07/26 10:35:34;;;;;;;;;;;;;;;26.58;55.80;95617.13;624334;227;62554;-70
2023/07/26 10:38:04;;;;;;;;;;;;;;;26.58;56.08;95609.05;624294;227;67078;-70
2023/07/26 10:40:33;;;;;;;;;;;;;;;26.59;56.09;95608.69;623515;227;66937;-70
2023/07/26 10:43:02;;;;;;;;;;;;;;;26.59;56.00;95607.91;622163;227;64567;-76
2023/07/26 10:45:48;;;;;;;;;;;;;;;26.59;56.30;95605.99;622011;227;66851;-73
2023/07/26 10:48:13;;;;;;;;;;;;;;;26.55;56.76;95597.81;622366;227;66767;-73
2023/07/26 10:50:43;;;;;;;;;;;;;;;26.55;56.94;95597.04;622595;228;64718;-73
2023/07/26 10:53:30;;;;;;;;;;;;;;;26.55;56.99;95588.95;622145;228;47101;-73
2023/07/26 10:56:14;;;;;;;;;;;;;;;26.53;57.18;95589.28;622391;228;67344;-73
2023/07/26 10:58:51;;;;;;;;;;;;;;;26.53;57.02;95586.59;622251;227;63008;-71
2023/07/26 11:01:37;;;;;;;;;;;;;;;26.53;56.70;95588.50;622518;228;65083;-69
2023/07/26 11:04:12;;;;;;;;;;;;;;;26.52;56.41;95585.03;622598;228;66897;-70
2023/07/26 11:06:51;;;;;;;;;;;;;;;26.53;56.18;95580.42;622316;227;64835;-69
2023/07/26 11:09:24;;;;;;;;;;;;;;;26.52;55.81;95584.25;622556;228;65047;-73
2023/07/26 11:11:55;;;;;;;;;;;;;;;26.52;55.71;95584.25;622561;227;64775;-69
2023/07/26 11:14:24;;;;;;;;;;;;;;;26.51;55.66;95579.97;622593;228;64905;-69
2023/07/26 11:16:53;;;;;;;;;;;;;;;26.51;55.92;95577.28;622568;228;64476;-69
2023/07/26 11:19:20;;;;;;;;;;;;;;;26.50;56.24;95571.08;622527;228;66914;-69
2023/07/26 11:21:48;;;;;;;;;;;;;;;26.51;56.00;95566.50;622469;228;64588;-69
2023/07/26 11:24:15;;;;;;;;;;;;;;;26.51;55.78;95561.11;622548;228;67262;-68
2023/07/26 11:26:44;;;;;;;;;;;;;;;26.50;55.87;95557.61;622588;228;66887;-68
2023/07/26 11:29:12;;;;;;;;;;;;;;;26.48;56.51;95554.47;622595;228;63509;-68
2023/07/26 11:31:40;;;;;;;;;;;;;;;26.49;55.63;95550.67;622554;228;64817;-68
2023/07/26 11:34:17;;;;;;;;;;;;;;;26.52;55.68;95547.31;622511;228;64823;-68
2023/07/26 11:36:45;;;;;;;;;;;;;;;26.53;55.52;95559.65;622577;228;63498;-68
2023/07/26 11:39:19;;;;;;;;;;;;;;;26.53;54.95;95550.79;622631;228;64201;-68
2023/07/26 11:41:46;;;;;;;;;;;;;;;26.53;54.66;95548.88;622647;228;66702;-68
2023/07/26 11:44:14;;;;;;;;;;;;;;;26.54;54.47;95536.18;622641;228;64474;-71
2023/07/26 11:46:43;;;;;;;;;;;;;;;26.54;54.18;95539.66;622606;228;66952;-72
2023/07/26 11:49:12;;;;;;;;;;;;;;;26.53;54.85;95531.93;622569;228;64788;-68
2023/07/26 11:51:39;;;;;;;;;;;;;;;26.53;54.62;95543.48;622630;228;64800;-75
2023/07/26 11:54:10;;;;;;;;;;;;;;;26.54;54.83;95549.66;622692;228;64563;-69
2023/07/26 11:56:37;;;;;;;;;;;;;;;26.55;54.50;95545.84;622612;228;64422;-68
2023/07/26 11:59:05;;;;;;;;;;;;;;;26.54;53.81;95539.66;622583;228;62451;-68
2023/07/26 12:01:34;;;;;;;;;;;;;;;26.55;53.53;95543.16;622504;228;66905;-68
2023/07/26 12:04:02;;;;;;;;;;;;;;;26.55;53.19;95535.85;622603;228;64771;-69
2023/07/26 12:06:30;;;;;;;;;;;;;;;26.55;53.19;95537.77;622584;228;63559;-70
2023/07/26 12:09:03;;;;;;;;;;;;;;;26.55;53.03;95545.84;622671;228;64753;-69
2023/07/26 12:11:30;;;;;;;;;;;;;;;26.55;53.33;95541.24;622234;227;64820;-70
2023/07/26 12:13:58;;;;;;;;;;;;;;;26.56;53.12;95536.63;622577;228;62447;-71
2023/07/26 12:16:29;;;;;;;;;;;;;;;26.54;53.57;95536.18;622598;228;67026;-71
2023/07/26 12:19:00;;;;;;;;;;;;;;;26.55;53.66;95529.69;622531;228;67821;-72
2023/07/26 12:21:25;;;;;;;;;;;;;;;26.55;53.58;95530.47;622480;228;62371;-72
2023/07/26 12:23:59;;;;;;;;;;;;;;;26.55;53.64;95532.38;622516;228;67214;-72
2023/07/26 12:26:33;;;;;;;;;;;;;;;26.55;53.63;95540.46;622581;228;65002;-70
2023/07/26 12:28:58;;;;;;;;;;;;;;;26.51;54.52;95528.78;622361;227;64593;-68
2023/07/26 12:31:29;;;;;;;;;;;;;;;26.53;54.06;95530.02;622503;228;66838;-68
2023/07/26 12:33:58;;;;;;;;;;;;;;;26.56;53.73;95531.24;622559;228;66887;-68
2023/07/26 12:36:28;;;;;;;;;;;;;;;26.56;54.01;95525.85;622542;228;64644;-68
2023/07/26 12:38:56;;;;;;;;;;;;;;;26.56;53.94;95526.63;621653;228;67255;-67
2023/07/26 12:41:30;;;;;;;;;;;;;;;26.58;53.93;95526.30;622473;228;64972;-68
2023/07/26 12:43:57;;;;;;;;;;;;;;;26.59;54.06;95527.86;622583;228;62603;-68
2023/07/26 12:46:25;;;;;;;;;;;;;;;26.59;53.78;95519.78;622508;228;67160;-73
2023/07/26 12:49:00;;;;;;;;;;;;;;;26.60;54.00;95521.36;622522;228;67008;-73
2023/07/26 12:51:25;;;;;;;;;;;;;;;26.60;53.45;95523.25;622305;227;62698;-72
2023/07/26 12:53:56;;;;;;;;;;;;;;;26.61;53.53;95522.14;622528;228;64873;-73
2023/07/26 12:56:24;;;;;;;;;;;;;;;26.61;53.31;95524.84;622592;228;66903;-73
2023/07/26 12:58:52;;;;;;;;;;;;;;;26.61;53.40;95516.75;622578;228;64539;-73
2023/07/26 13:01:19;;;;;;;;;;;;;;;26.64;53.86;95522.23;622434;228;67069;-70